Rio, Illinois
Current Conditions -  °F | °C
As of 10:55 AM on Thursday 30 Oct 2014 (Local Time) from KGBG Reporting Station
Overcast Overcast  
Wind Chill: 43°   Ceiling: 7000
Heat Index: 43°   Visibility: 10mi
Dew Point: 38°   Wind: 3mph
Humidity: 82%   Direction: 120°ESE
Pressure: 30.1"   Gusts: NA
Location:  41.11°N, 90.4°W
Report Text: KGBG 301555Z AUTO 12003KT 10SM OVC070 06/03 A3010 RMK AO2 T00620033
Loading
Personal Weather Stations






























Interactive Weather Map
Tropical Storm Tracking
New forecast layout! Learn more

10-Day Weather Forecast

Advertisements
Track Severe Weather on mobile